createdAt,value
2022-11-15T00:01:54.757Z,99.10
2022-11-15T00:04:40.444Z,99.20
2022-11-15T00:07:53.437Z,99.10
2022-11-15T00:10:31.971Z,99.20
2022-11-15T00:13:17.890Z,99.20
2022-11-15T00:16:04.499Z,99.00
2022-11-15T00:18:51.184Z,99.00
2022-11-15T00:21:36.929Z,99.10
2022-11-15T00:24:22.937Z,99.10
2022-11-15T00:27:08.868Z,99.10
2022-11-15T00:29:54.886Z,99.00
2022-11-15T00:32:40.796Z,99.10
2022-11-15T00:35:26.885Z,99.00
2022-11-15T00:38:12.659Z,99.00
2022-11-15T00:40:58.647Z,99.00
2022-11-15T00:43:44.678Z,98.90
2022-11-15T00:46:30.609Z,98.80
2022-11-15T00:49:16.784Z,98.70
2022-11-15T00:52:02.580Z,98.60
2022-11-15T00:54:48.508Z,98.80
2022-11-15T00:57:34.467Z,98.80
2022-11-15T01:00:20.706Z,98.80
2022-11-15T01:03:06.523Z,98.80
2022-11-15T01:05:52.386Z,98.80
2022-11-15T01:08:40.113Z,98.80
2022-11-15T01:11:26.029Z,98.80
2022-11-15T01:14:11.895Z,98.80
2022-11-15T01:16:57.687Z,98.80
2022-11-15T01:19:43.708Z,98.70
2022-11-15T01:22:29.572Z,98.70
2022-11-15T01:25:15.442Z,98.70
2022-11-15T01:28:01.320Z,98.70
2022-11-15T01:30:47.172Z,98.70
2022-11-15T01:33:36.638Z,98.60
2022-11-15T01:36:23.173Z,99.00
2022-11-15T01:39:09.172Z,98.70
2022-11-15T01:41:55.711Z,98.70
2022-11-15T01:44:49.478Z,98.60
2022-11-15T01:47:41.759Z,98.70
2022-11-15T01:50:31.813Z,98.60
2022-11-15T01:53:21.001Z,98.60
2022-11-15T01:56:09.921Z,98.60
2022-11-15T01:58:59.415Z,98.50
2022-11-15T02:01:45.713Z,98.50
2022-11-15T02:04:34.831Z,98.50
2022-11-15T02:07:22.913Z,98.50
2022-11-15T02:10:18.031Z,98.50
2022-11-15T02:13:04.262Z,98.40
2022-11-15T02:16:06.688Z,98.40
2022-11-15T02:19:01.149Z,98.50
2022-11-15T02:21:56.327Z,98.50
2022-11-15T02:24:45.550Z,98.60
2022-11-15T02:27:37.315Z,98.60
2022-11-15T02:30:35.494Z,98.60
2022-11-15T02:33:35.829Z,98.60
2022-11-15T02:36:40.503Z,98.50
2022-11-15T02:39:43.182Z,98.60
2022-11-15T02:42:53.286Z,98.50
2022-11-15T02:45:45.434Z,98.50
2022-11-15T02:48:33.413Z,98.60
2022-11-15T02:51:19.857Z,98.60
2022-11-15T02:54:05.499Z,98.80
2022-11-15T02:56:55.916Z,98.50
2022-11-15T03:00:05.635Z,98.40
2022-11-15T03:03:10.478Z,98.40
2022-11-15T03:06:36.414Z,98.30
2022-11-15T03:09:40.801Z,98.30
2022-11-15T03:12:45.026Z,98.20
2022-11-15T03:15:37.863Z,98.10
2022-11-15T03:18:34.344Z,98.10
2022-11-15T03:21:22.889Z,98.10
2022-11-15T03:24:10.711Z,98.10
2022-11-15T03:26:58.354Z,98.10
2022-11-15T03:29:51.506Z,98.20
2022-11-15T03:32:43.072Z,98.20
2022-11-15T03:35:39.899Z,98.10
2022-11-15T03:38:28.390Z,98.20
2022-11-15T03:41:25.849Z,98.10
2022-11-15T03:44:15.372Z,98.20
2022-11-15T03:47:21.208Z,98.10
2022-11-15T03:50:21.962Z,98.20
2022-11-15T03:53:08.108Z,98.10
2022-11-15T03:55:53.998Z,98.40
2022-11-15T03:58:40.349Z,98.10
2022-11-15T04:01:26.209Z,98.10
2022-11-15T04:04:12.652Z,98.10
2022-11-15T04:06:58.945Z,98.10
2022-11-15T04:10:03.202Z,98.00
2022-11-15T04:12:49.023Z,98.20
2022-11-15T04:15:35.252Z,98.30
2022-11-15T04:18:21.248Z,98.70
2022-11-15T04:21:27.231Z,98.30
2022-11-15T04:24:13.564Z,98.30
2022-11-15T04:26:59.718Z,98.40
2022-11-15T04:29:45.360Z,98.40
2022-11-15T04:32:31.358Z,98.60
2022-11-15T04:35:17.409Z,98.60
2022-11-15T04:38:05.419Z,98.60
2022-11-15T04:40:51.072Z,98.60
2022-11-15T04:43:36.871Z,98.60
2022-11-15T04:46:24.771Z,98.50
2022-11-15T04:49:11.132Z,98.60
2022-11-15T04:51:57.500Z,98.60
2022-11-15T04:54:43.853Z,98.50
2022-11-15T04:57:29.956Z,98.60
2022-11-15T05:00:17.539Z,98.70
2022-11-15T05:03:21.851Z,98.70
2022-11-15T05:06:07.806Z,98.70
2022-11-15T05:08:54.343Z,98.80
2022-11-15T05:11:40.418Z,98.80
2022-11-15T05:14:25.980Z,98.80
2022-11-15T05:17:12.103Z,98.60
2022-11-15T05:19:57.653Z,98.60
2022-11-15T05:22:43.600Z,98.70
2022-11-15T05:25:29.417Z,98.70
2022-11-15T05:28:15.387Z,98.80
2022-11-15T05:31:06.805Z,98.70
2022-11-15T05:33:54.197Z,98.80
2022-11-15T05:36:44.071Z,98.80
2022-11-15T05:39:30.088Z,98.80
2022-11-15T05:42:16.861Z,98.70
2022-11-15T05:45:05.522Z,98.60
2022-11-15T05:47:52.969Z,98.70
2022-11-15T05:50:42.256Z,98.90
2022-11-15T05:53:28.352Z,99.00
2022-11-15T05:56:15.128Z,99.00
2022-11-15T05:59:01.213Z,99.10
2022-11-15T06:01:47.290Z,99.00
2022-11-15T06:04:33.348Z,99.00
2022-11-15T06:07:19.395Z,98.90
2022-11-15T06:10:06.121Z,98.80
2022-11-15T06:13:02.703Z,98.90
2022-11-15T06:15:48.521Z,98.80
2022-11-15T06:18:36.122Z,98.60
2022-11-15T06:21:21.950Z,98.30
2022-11-15T06:24:08.193Z,98.40
2022-11-15T06:26:54.325Z,98.40
2022-11-15T06:29:39.969Z,98.50
2022-11-15T06:32:26.093Z,98.40
2022-11-15T06:35:12.093Z,98.50
2022-11-15T06:38:04.422Z,98.60
2022-11-15T06:40:50.587Z,98.50
2022-11-15T06:43:37.455Z,98.50
2022-11-15T06:46:23.477Z,98.40
2022-11-15T06:49:09.845Z,98.50
2022-11-15T06:51:56.061Z,98.50
2022-11-15T06:54:41.738Z,98.40
2022-11-15T06:57:27.514Z,98.40
2022-11-15T07:00:14.066Z,98.40
2022-11-15T07:03:03.350Z,98.50
2022-11-15T07:05:57.920Z,98.50
2022-11-15T07:08:46.785Z,98.40
2022-11-15T07:11:34.555Z,98.40
2022-11-15T07:14:20.619Z,98.30
2022-11-15T07:17:06.713Z,98.30
2022-11-15T07:19:52.613Z,98.40
2022-11-15T07:22:39.075Z,98.50
2022-11-15T07:25:25.182Z,98.50
2022-11-15T07:28:10.999Z,98.50
2022-11-15T07:30:57.313Z,98.50
2022-11-15T07:33:43.355Z,98.50
2022-11-15T07:36:29.164Z,98.40
2022-11-15T07:39:15.903Z,98.40
2022-11-15T07:42:20.042Z,98.30
2022-11-15T07:45:06.347Z,98.20
2022-11-15T07:47:52.471Z,98.10
2022-11-15T07:50:43.119Z,98.20
2022-11-15T07:53:29.413Z,98.10
2022-11-15T07:56:15.585Z,98.00
2022-11-15T07:59:01.954Z,97.90
2022-11-15T08:01:48.051Z,97.90
2022-11-15T08:04:34.039Z,97.90
2022-11-15T08:07:19.853Z,97.90
2022-11-15T08:10:08.116Z,97.90
2022-11-15T08:13:04.492Z,97.70
2022-11-15T08:15:56.260Z,97.50
2022-11-15T08:18:43.685Z,97.60
2022-11-15T08:21:29.602Z,97.60
2022-11-15T08:24:16.030Z,97.60
2022-11-15T08:27:01.827Z,97.40
2022-11-15T08:29:49.962Z,97.20
2022-11-15T08:32:35.975Z,97.30
2022-11-15T08:35:27.674Z,97.30
2022-11-15T08:38:15.695Z,97.20
2022-11-15T08:41:04.120Z,97.20
2022-11-15T08:43:50.090Z,97.30
2022-11-15T08:46:35.909Z,97.50
2022-11-15T08:49:21.704Z,97.70
2022-11-15T08:52:07.834Z,97.70
2022-11-15T08:54:53.577Z,97.70
2022-11-15T08:57:39.565Z,97.90
2022-11-15T09:00:25.624Z,97.90
2022-11-15T09:03:11.603Z,97.80
2022-11-15T09:06:01.875Z,97.80
2022-11-15T09:08:48.767Z,97.70
2022-11-15T09:11:35.316Z,97.90
2022-11-15T09:14:21.122Z,97.80
2022-11-15T09:17:10.967Z,97.80
2022-11-15T09:19:57.210Z,97.90
2022-11-15T09:22:42.988Z,97.70
2022-11-15T09:25:29.837Z,97.90
2022-11-15T09:28:15.812Z,97.90
2022-11-15T09:31:04.528Z,98.20
2022-11-15T09:33:50.515Z,98.20
2022-11-15T09:36:36.816Z,98.30
2022-11-15T09:39:22.724Z,98.30
2022-11-15T09:42:34.760Z,98.40
2022-11-15T09:45:32.713Z,98.20
2022-11-15T09:49:00.677Z,98.10
2022-11-15T09:51:53.589Z,98.00
2022-11-15T09:54:57.934Z,98.40
2022-11-15T09:57:46.017Z,98.10
2022-11-15T10:00:45.276Z,98.20
2022-11-15T10:03:15.254Z,98.40
2022-11-15T10:05:48.234Z,98.60
2022-11-15T10:08:37.435Z,98.70
2022-11-15T10:14:26.346Z,98.10
2022-11-15T10:17:12.384Z,97.80
2022-11-15T10:20:01.102Z,97.70
2022-11-15T10:22:52.800Z,97.60
2022-11-15T10:25:27.596Z,97.50
2022-11-15T10:28:05.445Z,97.60
2022-11-15T10:30:36.323Z,97.90
2022-11-15T10:33:35.093Z,97.90
2022-11-15T10:36:10.028Z,98.00
2022-11-15T10:38:49.726Z,97.90
2022-11-15T10:41:19.545Z,97.90
2022-11-15T10:44:09.606Z,98.10
2022-11-15T10:46:46.626Z,98.30
2022-11-15T10:49:16.168Z,98.10
2022-11-15T10:51:49.419Z,97.80
2022-11-15T10:54:38.791Z,97.80
2022-11-15T10:57:28.147Z,97.70
2022-11-15T10:59:58.876Z,97.60
2022-11-15T11:02:43.074Z,97.70
2022-11-15T11:05:38.144Z,97.60
2022-11-15T11:08:25.640Z,97.40
2022-11-15T11:11:01.431Z,97.50
2022-11-15T11:13:34.749Z,97.50
2022-11-15T11:16:17.153Z,97.30
2022-11-15T11:18:57.322Z,97.20
2022-11-15T11:21:59.483Z,97.10
2022-11-15T11:24:37.407Z,96.80
2022-11-15T11:27:19.780Z,96.60
2022-11-15T11:30:02.619Z,96.50
2022-11-15T11:32:51.293Z,96.30
2022-11-15T11:35:37.742Z,96.40
2022-11-15T11:38:36.062Z,96.30
2022-11-15T11:41:09.139Z,96.40
2022-11-15T11:43:50.419Z,96.30
2022-11-15T11:46:41.861Z,96.40
2022-11-15T11:49:26.109Z,96.50
2022-11-15T11:52:17.990Z,96.60
2022-11-15T11:55:13.971Z,96.50
2022-11-15T11:57:51.593Z,96.40
2022-11-15T12:00:23.899Z,96.30
2022-11-15T12:03:00.130Z,96.70
2022-11-15T12:05:33.530Z,96.40
2022-11-15T12:08:29.402Z,96.20
2022-11-15T12:11:22.894Z,96.10
2022-11-15T12:13:54.434Z,96.20
2022-11-15T12:16:28.820Z,96.40
2022-11-15T12:19:00.333Z,96.20
2022-11-15T12:21:36.443Z,96.10
2022-11-15T12:24:27.534Z,96.00
2022-11-15T12:27:16.168Z,96.10
2022-11-15T12:29:51.060Z,96.10
2022-11-15T12:32:31.945Z,96.10
2022-11-15T12:35:00.325Z,96.20
2022-11-15T12:37:41.739Z,96.10
2022-11-15T12:40:21.720Z,96.10
2022-11-15T12:43:15.300Z,96.20
2022-11-15T12:45:45.273Z,96.20
2022-11-15T12:48:18.629Z,96.30
2022-11-15T12:50:52.878Z,96.40
2022-11-15T12:53:28.902Z,96.40
2022-11-15T12:56:16.100Z,96.40
2022-11-15T12:58:46.875Z,96.40
2022-11-15T13:01:35.638Z,96.30
2022-11-15T13:04:13.598Z,96.70
2022-11-15T13:06:47.142Z,96.50
2022-11-15T13:09:33.339Z,96.40
2022-11-15T13:12:05.041Z,96.40
2022-11-15T13:14:38.135Z,96.40
2022-11-15T13:17:20.750Z,96.40
2022-11-15T13:19:53.923Z,96.50
2022-11-15T13:22:39.874Z,96.40
2022-11-15T13:25:35.133Z,96.40
2022-11-15T13:28:10.403Z,96.50
2022-11-15T13:30:38.822Z,96.40
2022-11-15T13:33:16.081Z,96.50
2022-11-15T13:35:47.907Z,96.60
2022-11-15T13:38:29.099Z,96.60
2022-11-15T13:40:58.333Z,96.70
2022-11-15T13:43:36.087Z,96.70
2022-11-15T13:46:19.446Z,96.70
2022-11-15T13:48:53.255Z,96.80
2022-11-15T13:51:42.029Z,96.70
2022-11-15T13:54:21.593Z,96.80
2022-11-15T13:56:53.813Z,96.80
2022-11-15T13:59:30.486Z,96.90
2022-11-15T14:02:03.527Z,96.80
2022-11-15T14:04:34.910Z,96.70
2022-11-15T14:07:03.881Z,96.70
2022-11-15T14:09:39.551Z,96.70
2022-11-15T14:12:33.224Z,96.70
2022-11-15T14:15:39.964Z,96.70
2022-11-15T14:18:07.311Z,96.70
2022-11-15T14:20:39.897Z,96.60
2022-11-15T14:23:29.089Z,96.60
2022-11-15T14:26:00.319Z,96.70
2022-11-15T14:28:27.539Z,96.70
2022-11-15T14:30:57.613Z,96.70
2022-11-15T14:33:38.129Z,96.80
2022-11-15T14:36:06.620Z,96.90
2022-11-15T14:38:34.550Z,97.00
2022-11-15T14:41:02.118Z,97.50
2022-11-15T14:43:29.639Z,97.00
2022-11-15T14:45:57.134Z,96.90
2022-11-15T14:48:24.890Z,96.80
2022-11-15T14:50:52.166Z,96.70
2022-11-15T14:53:20.842Z,96.70
2022-11-15T14:55:48.206Z,96.70
2022-11-15T14:58:15.434Z,96.80
2022-11-15T15:00:42.947Z,96.70
2022-11-15T15:03:10.554Z,96.80
2022-11-15T15:05:41.232Z,96.90
2022-11-15T15:08:10.416Z,96.90
2022-11-15T15:10:42.091Z,96.90
2022-11-15T15:13:24.078Z,96.90
2022-11-15T15:15:53.061Z,97.10
2022-11-15T15:18:21.127Z,97.10
2022-11-15T15:21:08.038Z,97.10
2022-11-15T15:23:36.674Z,97.10
2022-11-15T15:26:04.357Z,97.20
2022-11-15T15:28:34.799Z,97.10
2022-11-15T15:31:02.861Z,97.10
2022-11-15T15:33:30.196Z,97.20
2022-11-15T15:35:57.894Z,97.20
2022-11-15T15:38:25.198Z,97.20
2022-11-15T15:40:52.490Z,97.20
2022-11-15T15:43:19.715Z,97.20
2022-11-15T15:45:47.661Z,97.20
2022-11-15T15:48:17.114Z,97.20
2022-11-15T15:50:45.159Z,97.20
2022-11-15T15:53:13.978Z,97.20
2022-11-15T15:55:41.594Z,97.20
2022-11-15T15:58:09.278Z,97.20
2022-11-15T16:00:38.091Z,97.20
2022-11-15T16:03:05.441Z,97.30
2022-11-15T16:05:32.861Z,97.60
2022-11-15T16:08:00.379Z,97.30
2022-11-15T16:10:34.851Z,97.30
2022-11-15T16:13:02.176Z,97.30
2022-11-15T16:15:32.514Z,97.20
2022-11-15T16:18:04.772Z,97.30
2022-11-15T16:20:38.140Z,97.40
2022-11-15T16:23:09.576Z,97.50
2022-11-15T16:25:49.483Z,97.50
2022-11-15T16:28:28.731Z,97.40
2022-11-15T16:31:10.109Z,97.40
2022-11-15T16:33:38.170Z,97.50
2022-11-15T16:36:07.768Z,97.50
2022-11-15T16:38:36.814Z,97.50
2022-11-15T16:41:04.315Z,97.50
2022-11-15T16:43:31.573Z,97.50
2022-11-15T16:45:59.023Z,97.50
2022-11-15T16:48:28.325Z,97.60
2022-11-15T16:50:59.157Z,97.60
2022-11-15T16:53:27.804Z,97.60
2022-11-15T16:55:55.636Z,97.70
2022-11-15T16:58:23.735Z,97.60
2022-11-15T17:00:56.052Z,97.60
2022-11-15T17:03:24.763Z,97.50
2022-11-15T17:05:52.450Z,97.50
2022-11-15T17:08:22.078Z,97.60
2022-11-15T17:10:49.589Z,97.60
2022-11-15T17:13:16.908Z,97.60
2022-11-15T17:15:44.554Z,97.70
2022-11-15T17:18:13.454Z,97.70
2022-11-15T17:20:41.371Z,97.60
2022-11-15T17:23:14.408Z,97.60
2022-11-15T17:25:42.445Z,97.60
2022-11-15T17:28:10.851Z,97.60
2022-11-15T17:30:41.776Z,97.60
2022-11-15T17:33:09.073Z,97.60
2022-11-15T17:35:36.347Z,97.60
2022-11-15T17:38:03.715Z,97.70
2022-11-15T17:40:31.669Z,97.70
2022-11-15T17:42:59.136Z,97.80
2022-11-15T17:45:26.477Z,97.80
2022-11-15T17:47:54.070Z,97.70
2022-11-15T17:50:21.297Z,97.80
2022-11-15T17:52:48.546Z,97.70
2022-11-15T17:55:15.846Z,97.70
2022-11-15T17:57:44.223Z,97.70
2022-11-15T18:00:12.083Z,97.70
2022-11-15T18:02:39.500Z,97.70
2022-11-15T18:05:07.428Z,97.70
2022-11-15T18:07:34.845Z,97.60
2022-11-15T18:10:02.410Z,97.60
2022-11-15T18:12:32.440Z,97.70
2022-11-15T18:15:00.137Z,97.70
2022-11-15T18:17:28.010Z,97.60
2022-11-15T18:19:55.365Z,97.70
2022-11-15T18:22:23.460Z,97.60
2022-11-15T18:24:50.766Z,97.40
2022-11-15T18:27:20.920Z,97.50
2022-11-15T18:29:48.148Z,97.40
2022-11-15T18:32:17.661Z,97.40
2022-11-15T18:34:45.019Z,97.40
2022-11-15T18:37:12.499Z,97.50
2022-11-15T18:39:39.726Z,97.50
2022-11-15T18:42:06.993Z,97.40
2022-11-15T18:44:34.599Z,97.20
2022-11-15T18:47:01.860Z,97.10
2022-11-15T18:49:29.297Z,97.00
2022-11-15T18:51:57.051Z,97.20
2022-11-15T18:54:29.783Z,97.20
2022-11-15T18:56:58.640Z,97.30
2022-11-15T18:59:27.659Z,97.40
2022-11-15T19:01:56.137Z,97.30
2022-11-15T19:04:23.510Z,97.40
2022-11-15T19:06:56.459Z,97.30
2022-11-15T19:09:27.264Z,97.20
2022-11-15T19:11:54.520Z,97.20
2022-11-15T19:14:24.486Z,97.20
2022-11-15T19:16:54.982Z,97.50
2022-11-15T19:19:25.121Z,97.20
2022-11-15T19:21:52.993Z,97.10
2022-11-15T19:24:20.873Z,97.20
2022-11-15T19:26:48.371Z,97.20
2022-11-15T19:29:21.817Z,97.00
2022-11-15T19:31:54.799Z,97.00
2022-11-15T19:34:22.054Z,97.00
2022-11-15T19:36:49.496Z,97.10
2022-11-15T19:39:18.443Z,97.10
2022-11-15T19:41:46.612Z,97.20
2022-11-15T19:44:14.277Z,97.10
2022-11-15T19:46:42.273Z,97.10
2022-11-15T19:49:11.520Z,97.10
2022-11-15T19:51:41.552Z,97.10
2022-11-15T19:54:10.363Z,97.10
2022-11-15T19:56:39.598Z,97.10
2022-11-15T19:59:07.502Z,97.10
2022-11-15T20:01:37.946Z,97.10
2022-11-15T20:04:06.502Z,97.00
2022-11-15T20:06:37.210Z,97.00
2022-11-15T20:09:04.954Z,97.00
2022-11-15T20:11:34.085Z,97.00
2022-11-15T20:14:02.355Z,97.10
2022-11-15T20:16:29.796Z,97.20
2022-11-15T20:18:57.272Z,97.20
2022-11-15T20:21:25.012Z,97.20
2022-11-15T20:23:52.564Z,97.20
2022-11-15T20:26:20.960Z,97.20
2022-11-15T20:28:49.356Z,97.10
2022-11-15T20:31:17.234Z,97.40
2022-11-15T20:33:44.605Z,97.10
2022-11-15T20:36:16.005Z,97.10
2022-11-15T20:38:44.586Z,97.20
2022-11-15T20:41:13.075Z,97.20
2022-11-15T20:43:43.695Z,97.40
2022-11-15T20:46:12.670Z,97.30
2022-11-15T20:48:40.590Z,97.50
2022-11-15T20:51:17.690Z,97.60
2022-11-15T20:53:46.206Z,97.80
2022-11-15T20:56:19.560Z,97.90
2022-11-15T20:58:47.305Z,98.00
2022-11-15T21:01:24.697Z,98.00
2022-11-15T21:03:56.347Z,98.10
2022-11-15T21:06:25.517Z,98.20
2022-11-15T21:09:12.915Z,98.30
2022-11-15T21:11:59.129Z,98.40
2022-11-15T21:14:26.437Z,98.50
2022-11-15T21:16:53.879Z,98.50
2022-11-15T21:19:27.241Z,98.40
2022-11-15T21:21:58.928Z,98.50
2022-11-15T21:24:26.226Z,98.60
2022-11-15T21:26:54.696Z,98.70
2022-11-15T21:29:22.069Z,98.80
2022-11-15T21:31:51.311Z,98.80
2022-11-15T21:34:19.344Z,98.80
2022-11-15T21:36:46.978Z,98.70
2022-11-15T21:39:14.207Z,98.80
2022-11-15T21:41:41.644Z,98.80
2022-11-15T21:44:09.025Z,99.00
2022-11-15T21:46:37.206Z,99.00
2022-11-15T21:49:05.649Z,99.10
2022-11-15T21:51:33.477Z,99.00
2022-11-15T21:54:01.492Z,99.00
2022-11-15T21:56:29.766Z,99.00
2022-11-15T21:58:57.206Z,99.00
2022-11-15T22:01:44.644Z,99.00
2022-11-15T22:04:12.516Z,99.10
2022-11-15T22:06:39.867Z,99.00
2022-11-15T22:09:07.403Z,99.10
2022-11-15T22:11:35.129Z,99.20
2022-11-15T22:14:02.381Z,99.20
2022-11-15T22:16:30.007Z,99.20
2022-11-15T22:18:57.445Z,99.30
2022-11-15T22:21:25.180Z,99.30
2022-11-15T22:23:52.621Z,99.30
2022-11-15T22:26:23.462Z,99.30
2022-11-15T22:28:51.861Z,99.30
2022-11-15T22:31:19.386Z,99.30
2022-11-15T22:33:47.013Z,99.30
2022-11-15T22:36:15.029Z,99.20
2022-11-15T22:38:42.547Z,99.20
2022-11-15T22:41:10.045Z,99.30
2022-11-15T22:43:37.525Z,99.20
2022-11-15T22:46:05.756Z,99.20
2022-11-15T22:48:36.705Z,99.20
2022-11-15T22:51:04.619Z,99.30
2022-11-15T22:53:32.219Z,99.30
2022-11-15T22:56:01.715Z,99.20
2022-11-15T22:58:31.021Z,99.30
2022-11-15T23:01:02.183Z,99.30
2022-11-15T23:03:30.537Z,99.40
2022-11-15T23:06:06.181Z,99.40
2022-11-15T23:08:34.027Z,99.50
2022-11-15T23:11:23.768Z,99.40
2022-11-15T23:13:52.150Z,99.40
2022-11-15T23:16:23.444Z,99.40
2022-11-15T23:18:58.573Z,99.50
2022-11-15T23:21:48.387Z,99.40
2022-11-15T23:24:17.380Z,99.40
2022-11-15T23:26:45.879Z,99.30
2022-11-15T23:29:16.351Z,99.30
2022-11-15T23:32:17.080Z,99.40
2022-11-15T23:34:45.690Z,99.40
2022-11-15T23:37:15.447Z,99.50
2022-11-15T23:39:43.097Z,99.40
2022-11-15T23:42:20.297Z,99.40
2022-11-15T23:44:50.625Z,99.50
2022-11-15T23:47:19.371Z,99.60
2022-11-15T23:49:46.685Z,99.60
2022-11-15T23:52:15.518Z,99.60
2022-11-15T23:54:42.936Z,99.60
2022-11-15T23:57:12.106Z,99.60
2022-11-15T23:59:46.263Z,99.60
